sensor_id;sensor_type;location;lat;lon;timestamp;P1;durP1;ratioP1;P2;durP2;ratioP2
2652;SDS011;1336;48.692;9.144;2022-10-31T06:00:46;6.60;;;3.67;;
2652;SDS011;1336;48.692;9.144;2022-10-31T06:01:38;6.53;;;3.75;;
2652;SDS011;1336;48.692;9.144;2022-10-31T06:02:28;10.90;;;3.83;;
2652;SDS011;1336;48.692;9.144;2022-10-31T06:03:24;5.68;;;3.97;;
2652;SDS011;1336;48.692;9.144;2022-10-31T06:04:15;7.40;;;3.90;;
2652;SDS011;1336;48.692;9.144;2022-10-31T06:05:06;4.22;;;3.70;;
2652;SDS011;1336;48.692;9.144;2022-10-31T06:05:58;5.70;;;3.58;;
2652;SDS011;1336;48.692;9.144;2022-10-31T06:06:49;5.07;;;3.80;;
2652;SDS011;1336;48.692;9.144;2022-10-31T06:07:40;6.53;;;4.00;;
2652;SDS011;1336;48.692;9.144;2022-10-31T06:08:32;6.30;;;3.92;;
2652;SDS011;1336;48.692;9.144;2022-10-31T06:09:22;6.70;;;3.77;;
2652;SDS011;1336;48.692;9.144;2022-10-31T06:10:14;6.75;;;4.20;;
2652;SDS011;1336;48.692;9.144;2022-10-31T06:11:05;4.57;;;3.80;;
2652;SDS011;1336;48.692;9.144;2022-10-31T06:11:57;6.78;;;4.82;;
2652;SDS011;1336;48.692;9.144;2022-10-31T06:12:48;6.57;;;3.83;;
2652;SDS011;1336;48.692;9.144;2022-10-31T06:13:40;5.15;;;3.67;;
2652;SDS011;1336;48.692;9.144;2022-10-31T06:14:31;5.63;;;3.90;;
2652;SDS011;1336;48.692;9.144;2022-10-31T06:15:22;7.35;;;4.35;;
2652;SDS011;1336;48.692;9.144;2022-10-31T06:16:14;9.67;;;4.00;;
2652;SDS011;1336;48.692;9.144;2022-10-31T06:17:06;5.50;;;3.75;;
2652;SDS011;1336;48.692;9.144;2022-10-31T06:17:58;5.20;;;4.13;;
2652;SDS011;1336;48.692;9.144;2022-10-31T06:18:50;9.10;;;4.20;;
2652;SDS011;1336;48.692;9.144;2022-10-31T06:19:41;5.00;;;3.80;;
2652;SDS011;1336;48.692;9.144;2022-10-31T06:20:32;5.05;;;4.00;;
2652;SDS011;1336;48.692;9.144;2022-10-31T06:21:23;5.07;;;3.90;;
2652;SDS011;1336;48.692;9.144;2022-10-31T06:22:15;6.45;;;3.80;;
2652;SDS011;1336;48.692;9.144;2022-10-31T06:23:06;8.30;;;4.17;;
2652;SDS011;1336;48.692;9.144;2022-10-31T06:23:57;7.23;;;4.07;;
2652;SDS011;1336;48.692;9.144;2022-10-31T06:24:48;5.28;;;4.30;;
2652;SDS011;1336;48.692;9.144;2022-10-31T06:25:39;11.33;;;5.00;;
2652;SDS011;1336;48.692;9.144;2022-10-31T06:26:31;4.68;;;3.90;;
2652;SDS011;1336;48.692;9.144;2022-10-31T06:27:22;8.30;;;4.23;;
2652;SDS011;1336;48.692;9.144;2022-10-31T06:28:14;7.35;;;3.83;;
2652;SDS011;1336;48.692;9.144;2022-10-31T06:29:04;8.10;;;4.27;;
2652;SDS011;1336;48.692;9.144;2022-10-31T06:29:56;6.93;;;4.10;;
2652;SDS011;1336;48.692;9.144;2022-10-31T06:30:47;7.37;;;4.07;;
2652;SDS011;1336;48.692;9.144;2022-10-31T06:31:40;11.18;;;4.82;;
2652;SDS011;1336;48.692;9.144;2022-10-31T06:32:31;4.72;;;3.85;;
2652;SDS011;1336;48.692;9.144;2022-10-31T06:33:22;7.63;;;4.53;;
2652;SDS011;1336;48.692;9.144;2022-10-31T06:34:13;8.03;;;4.07;;
2652;SDS011;1336;48.692;9.144;2022-10-31T06:35:05;7.68;;;4.20;;
2652;SDS011;1336;48.692;9.144;2022-10-31T06:35:56;5.15;;;4.45;;
2652;SDS011;1336;48.692;9.144;2022-10-31T06:36:48;7.22;;;4.03;;
2652;SDS011;1336;48.692;9.144;2022-10-31T06:37:39;6.40;;;4.10;;
2652;SDS011;1336;48.692;9.144;2022-10-31T06:38:31;8.73;;;4.90;;
2652;SDS011;1336;48.692;9.144;2022-10-31T06:39:21;8.47;;;5.10;;
2652;SDS011;1336;48.692;9.144;2022-10-31T06:40:13;8.30;;;4.90;;
2652;SDS011;1336;48.692;9.144;2022-10-31T06:41:04;8.10;;;5.20;;
2652;SDS011;1336;48.692;9.144;2022-10-31T06:41:56;8.88;;;4.97;;
2652;SDS011;1336;48.692;9.144;2022-10-31T06:42:47;12.27;;;4.87;;
2652;SDS011;1336;48.692;9.144;2022-10-31T06:43:47;6.95;;;4.80;;
2652;SDS011;1336;48.692;9.144;2022-10-31T06:44:38;8.83;;;4.57;;
2652;SDS011;1336;48.692;9.144;2022-10-31T06:45:29;6.63;;;3.92;;
2652;SDS011;1336;48.692;9.144;2022-10-31T06:46:20;8.20;;;4.40;;
2652;SDS011;1336;48.692;9.144;2022-10-31T06:47:13;6.82;;;4.40;;
2652;SDS011;1336;48.692;9.144;2022-10-31T06:48:04;6.32;;;4.07;;
2652;SDS011;1336;48.692;9.144;2022-10-31T06:48:58;4.53;;;4.10;;
2652;SDS011;1336;48.692;9.144;2022-10-31T06:49:49;7.70;;;4.50;;
2652;SDS011;1336;48.692;9.144;2022-10-31T06:50:40;8.48;;;4.25;;
2652;SDS011;1336;48.692;9.144;2022-10-31T06:51:31;4.03;;;3.63;;
2652;SDS011;1336;48.692;9.144;2022-10-31T06:52:23;8.43;;;4.25;;
2652;SDS011;1336;48.692;9.144;2022-10-31T06:53:14;5.53;;;4.80;;
2652;SDS011;1336;48.692;9.144;2022-10-31T06:54:06;6.35;;;4.57;;
2652;SDS011;1336;48.692;9.144;2022-10-31T06:54:56;7.40;;;3.83;;
2652;SDS011;1336;48.692;9.144;2022-10-31T06:55:48;9.13;;;4.20;;
2652;SDS011;1336;48.692;9.144;2022-10-31T06:56:39;5.33;;;4.10;;
2652;SDS011;1336;48.692;9.144;2022-10-31T06:57:30;5.47;;;3.97;;
2652;SDS011;1336;48.692;9.144;2022-10-31T06:58:21;8.63;;;4.80;;
2652;SDS011;1336;48.692;9.144;2022-10-31T06:59:13;5.45;;;4.60;;
2652;SDS011;1336;48.692;9.144;2022-10-31T07:00:05;5.18;;;3.65;;
2652;SDS011;1336;48.692;9.144;2022-10-31T07:00:58;5.57;;;4.05;;
2652;SDS011;1336;48.692;9.144;2022-10-31T07:01:50;5.63;;;3.58;;
2652;SDS011;1336;48.692;9.144;2022-10-31T07:02:43;9.48;;;4.80;;
2652;SDS011;1336;48.692;9.144;2022-10-31T07:03:33;6.35;;;4.68;;
2652;SDS011;1336;48.692;9.144;2022-10-31T07:04:25;8.48;;;4.28;;
2652;SDS011;1336;48.692;9.144;2022-10-31T07:05:16;8.47;;;4.63;;
2652;SDS011;1336;48.692;9.144;2022-10-31T07:06:07;7.65;;;3.70;;
2652;SDS011;1336;48.692;9.144;2022-10-31T07:06:58;6.60;;;3.90;;
2652;SDS011;1336;48.692;9.144;2022-10-31T07:07:51;7.30;;;3.90;;
2652;SDS011;1336;48.692;9.144;2022-10-31T07:08:43;7.57;;;4.18;;
2652;SDS011;1336;48.692;9.144;2022-10-31T07:09:35;4.78;;;3.85;;
2652;SDS011;1336;48.692;9.144;2022-10-31T07:10:26;6.20;;;3.97;;
2652;SDS011;1336;48.692;9.144;2022-10-31T07:11:19;7.95;;;4.25;;
2652;SDS011;1336;48.692;9.144;2022-10-31T07:12:09;9.77;;;4.40;;
2652;SDS011;1336;48.692;9.144;2022-10-31T07:13:02;6.28;;;4.20;;
2652;SDS011;1336;48.692;9.144;2022-10-31T07:13:54;8.13;;;4.93;;
2652;SDS011;1336;48.692;9.144;2022-10-31T07:14:45;5.97;;;4.88;;
2652;SDS011;1336;48.692;9.144;2022-10-31T07:15:37;7.93;;;6.13;;
2652;SDS011;1336;48.692;9.144;2022-10-31T07:16:30;7.85;;;5.30;;
2652;SDS011;1336;48.692;9.144;2022-10-31T07:17:22;6.93;;;5.17;;
2652;SDS011;1336;48.692;9.144;2022-10-31T07:18:15;4.53;;;4.13;;
2652;SDS011;1336;48.692;9.144;2022-10-31T07:19:06;9.25;;;4.82;;
2652;SDS011;1336;48.692;9.144;2022-10-31T07:19:58;4.80;;;4.30;;
2652;SDS011;1336;48.692;9.144;2022-10-31T07:20:49;7.13;;;3.83;;
2652;SDS011;1336;48.692;9.144;2022-10-31T07:21:40;7.60;;;4.60;;
2652;SDS011;1336;48.692;9.144;2022-10-31T07:22:34;6.50;;;3.93;;
2652;SDS011;1336;48.692;9.144;2022-10-31T07:23:26;5.53;;;4.68;;
2652;SDS011;1336;48.692;9.144;2022-10-31T07:24:17;6.30;;;5.00;;
2652;SDS011;1336;48.692;9.144;2022-10-31T07:25:09;7.05;;;5.70;;
2652;SDS011;1336;48.692;9.144;2022-10-31T07:26:00;8.52;;;5.03;;
2652;SDS011;1336;48.692;9.144;2022-10-31T07:26:52;8.80;;;5.10;;
2652;SDS011;1336;48.692;9.144;2022-10-31T07:27:43;5.60;;;4.43;;
2652;SDS011;1336;48.692;9.144;2022-10-31T07:28:34;7.88;;;4.25;;
2652;SDS011;1336;48.692;9.144;2022-10-31T07:29:25;6.60;;;4.67;;
2652;SDS011;1336;48.692;9.144;2022-10-31T07:30:17;6.50;;;4.50;;
2652;SDS011;1336;48.692;9.144;2022-10-31T07:31:08;11.18;;;4.55;;
2652;SDS011;1336;48.692;9.144;2022-10-31T07:32:00;9.98;;;4.30;;
2652;SDS011;1336;48.692;9.144;2022-10-31T07:32:52;8.93;;;4.40;;
2652;SDS011;1336;48.692;9.144;2022-10-31T07:33:46;6.20;;;4.07;;
2652;SDS011;1336;48.692;9.144;2022-10-31T07:34:37;6.97;;;3.97;;
2652;SDS011;1336;48.692;9.144;2022-10-31T07:35:29;6.78;;;4.07;;
2652;SDS011;1336;48.692;9.144;2022-10-31T07:36:20;5.57;;;4.47;;
2652;SDS011;1336;48.692;9.144;2022-10-31T07:37:12;6.63;;;4.07;;
2652;SDS011;1336;48.692;9.144;2022-10-31T07:38:06;8.43;;;4.43;;
2652;SDS011;1336;48.692;9.144;2022-10-31T07:38:58;6.95;;;4.93;;
2652;SDS011;1336;48.692;9.144;2022-10-31T07:39:52;5.85;;;4.57;;
2652;SDS011;1336;48.692;9.144;2022-10-31T07:40:43;4.80;;;4.00;;
2652;SDS011;1336;48.692;9.144;2022-10-31T07:41:34;6.35;;;4.70;;
2652;SDS011;1336;48.692;9.144;2022-10-31T07:42:25;9.70;;;4.80;;
2652;SDS011;1336;48.692;9.144;2022-10-31T07:43:17;5.28;;;4.03;;
2652;SDS011;1336;48.692;9.144;2022-10-31T07:44:07;9.43;;;4.50;;
2652;SDS011;1336;48.692;9.144;2022-10-31T07:44:59;6.97;;;4.85;;
2652;SDS011;1336;48.692;9.144;2022-10-31T07:45:50;7.50;;;4.23;;
2652;SDS011;1336;48.692;9.144;2022-10-31T07:46:42;5.32;;;4.10;;
2652;SDS011;1336;48.692;9.144;2022-10-31T07:47:37;9.63;;;5.03;;
2652;SDS011;1336;48.692;9.144;2022-10-31T07:48:29;9.05;;;4.85;;
2652;SDS011;1336;48.692;9.144;2022-10-31T07:49:21;6.37;;;5.73;;
2652;SDS011;1336;48.692;9.144;2022-10-31T07:50:15;7.45;;;4.32;;
2652;SDS011;1336;48.692;9.144;2022-10-31T07:51:07;6.65;;;5.30;;
2652;SDS011;1336;48.692;9.144;2022-10-31T07:51:59;7.15;;;4.82;;
2652;SDS011;1336;48.692;9.144;2022-10-31T07:52:57;5.77;;;4.70;;
2652;SDS011;1336;48.692;9.144;2022-10-31T07:53:50;5.78;;;4.50;;
2652;SDS011;1336;48.692;9.144;2022-10-31T07:54:41;9.83;;;4.80;;
2652;SDS011;1336;48.692;9.144;2022-10-31T07:55:32;8.48;;;5.72;;
2652;SDS011;1336;48.692;9.144;2022-10-31T07:56:23;6.30;;;4.43;;
2652;SDS011;1336;48.692;9.144;2022-10-31T07:57:15;8.38;;;4.60;;
2652;SDS011;1336;48.692;9.144;2022-10-31T07:58:06;7.60;;;4.73;;
2652;SDS011;1336;48.692;9.144;2022-10-31T07:58:59;13.20;;;6.40;;
2652;SDS011;1336;48.692;9.144;2022-10-31T07:59:49;7.70;;;5.13;;
2652;SDS011;1336;48.692;9.144;2022-10-31T08:00:42;5.55;;;4.95;;
2652;SDS011;1336;48.692;9.144;2022-10-31T08:01:34;8.52;;;4.65;;
2652;SDS011;1336;48.692;9.144;2022-10-31T08:02:26;6.35;;;4.97;;
2652;SDS011;1336;48.692;9.144;2022-10-31T08:03:17;10.60;;;5.83;;
2652;SDS011;1336;48.692;9.144;2022-10-31T08:04:10;6.97;;;4.72;;
2652;SDS011;1336;48.692;9.144;2022-10-31T08:05:02;6.50;;;4.53;;
2652;SDS011;1336;48.692;9.144;2022-10-31T08:05:54;7.05;;;4.50;;
2652;SDS011;1336;48.692;9.144;2022-10-31T08:06:46;8.13;;;5.25;;
2652;SDS011;1336;48.692;9.144;2022-10-31T08:07:39;5.45;;;4.40;;
2652;SDS011;1336;48.692;9.144;2022-10-31T08:08:29;7.87;;;5.27;;
2652;SDS011;1336;48.692;9.144;2022-10-31T08:09:22;7.90;;;4.88;;
2652;SDS011;1336;48.692;9.144;2022-10-31T08:10:12;6.93;;;4.77;;
2652;SDS011;1336;48.692;9.144;2022-10-31T08:11:04;8.98;;;5.82;;
2652;SDS011;1336;48.692;9.144;2022-10-31T08:11:55;7.77;;;5.90;;
2652;SDS011;1336;48.692;9.144;2022-10-31T08:12:47;9.23;;;6.15;;
2652;SDS011;1336;48.692;9.144;2022-10-31T08:13:44;7.80;;;5.50;;
2652;SDS011;1336;48.692;9.144;2022-10-31T08:14:37;5.93;;;5.20;;
2652;SDS011;1336;48.692;9.144;2022-10-31T08:15:28;11.10;;;5.43;;
2652;SDS011;1336;48.692;9.144;2022-10-31T08:16:20;6.60;;;5.65;;
2652;SDS011;1336;48.692;9.144;2022-10-31T08:17:11;8.57;;;4.93;;
2652;SDS011;1336;48.692;9.144;2022-10-31T08:18:02;7.60;;;5.28;;
2652;SDS011;1336;48.692;9.144;2022-10-31T08:18:53;8.33;;;5.50;;
2652;SDS011;1336;48.692;9.144;2022-10-31T08:19:45;8.00;;;5.10;;
2652;SDS011;1336;48.692;9.144;2022-10-31T08:20:37;9.27;;;5.50;;
2652;SDS011;1336;48.692;9.144;2022-10-31T08:21:29;6.43;;;4.90;;
2652;SDS011;1336;48.692;9.144;2022-10-31T08:22:20;7.23;;;4.43;;
2652;SDS011;1336;48.692;9.144;2022-10-31T08:23:12;7.25;;;5.10;;
2652;SDS011;1336;48.692;9.144;2022-10-31T08:24:03;6.20;;;4.85;;
2652;SDS011;1336;48.692;9.144;2022-10-31T08:24:55;7.90;;;5.13;;
2652;SDS011;1336;48.692;9.144;2022-10-31T08:25:46;7.10;;;4.63;;
2652;SDS011;1336;48.692;9.144;2022-10-31T08:26:38;5.10;;;4.45;;
2652;SDS011;1336;48.692;9.144;2022-10-31T08:27:29;6.87;;;4.30;;
2652;SDS011;1336;48.692;9.144;2022-10-31T08:28:20;6.18;;;5.10;;
2652;SDS011;1336;48.692;9.144;2022-10-31T08:29:12;6.40;;;4.20;;
2652;SDS011;1336;48.692;9.144;2022-10-31T08:30:04;6.75;;;4.93;;
2652;SDS011;1336;48.692;9.144;2022-10-31T08:30:57;7.00;;;4.68;;
2652;SDS011;1336;48.692;9.144;2022-10-31T08:31:48;8.40;;;5.10;;
2652;SDS011;1336;48.692;9.144;2022-10-31T08:32:40;6.45;;;4.60;;
2652;SDS011;1336;48.692;9.144;2022-10-31T08:33:31;6.67;;;5.30;;
2652;SDS011;1336;48.692;9.144;2022-10-31T08:34:22;7.43;;;5.07;;
2652;SDS011;1336;48.692;9.144;2022-10-31T08:35:14;6.53;;;4.82;;
2652;SDS011;1336;48.692;9.144;2022-10-31T08:36:07;6.72;;;5.00;;
2652;SDS011;1336;48.692;9.144;2022-10-31T08:36:59;7.50;;;4.50;;
2652;SDS011;1336;48.692;9.144;2022-10-31T08:37:51;5.97;;;4.57;;
2652;SDS011;1336;48.692;9.144;2022-10-31T08:38:43;14.35;;;5.85;;
2652;SDS011;1336;48.692;9.144;2022-10-31T08:39:34;6.63;;;4.83;;
2652;SDS011;1336;48.692;9.144;2022-10-31T08:40:26;7.10;;;5.30;;
2652;SDS011;1336;48.692;9.144;2022-10-31T08:41:18;8.02;;;5.10;;
2652;SDS011;1336;48.692;9.144;2022-10-31T08:42:10;8.80;;;4.80;;
2652;SDS011;1336;48.692;9.144;2022-10-31T08:43:01;8.37;;;4.47;;
2652;SDS011;1336;48.692;9.144;2022-10-31T08:43:54;7.00;;;5.22;;
2652;SDS011;1336;48.692;9.144;2022-10-31T08:44:45;6.50;;;4.53;;
2652;SDS011;1336;48.692;9.144;2022-10-31T08:45:36;6.95;;;5.05;;
2652;SDS011;1336;48.692;9.144;2022-10-31T08:46:28;5.22;;;4.60;;
2652;SDS011;1336;48.692;9.144;2022-10-31T08:47:19;6.30;;;4.40;;
2652;SDS011;1336;48.692;9.144;2022-10-31T08:48:11;7.07;;;4.80;;
2652;SDS011;1336;48.692;9.144;2022-10-31T08:49:03;7.60;;;5.00;;
2652;SDS011;1336;48.692;9.144;2022-10-31T08:49:55;5.35;;;4.85;;
2652;SDS011;1336;48.692;9.144;2022-10-31T08:50:46;7.50;;;5.03;;
2652;SDS011;1336;48.692;9.144;2022-10-31T08:51:39;9.18;;;6.63;;
2652;SDS011;1336;48.692;9.144;2022-10-31T08:52:30;9.88;;;7.47;;
2652;SDS011;1336;48.692;9.144;2022-10-31T08:53:21;11.23;;;6.75;;
2652;SDS011;1336;48.692;9.144;2022-10-31T08:54:12;8.67;;;6.37;;
2652;SDS011;1336;48.692;9.144;2022-10-31T08:55:04;9.13;;;6.40;;
2652;SDS011;1336;48.692;9.144;2022-10-31T08:55:56;7.22;;;6.53;;
2652;SDS011;1336;48.692;9.144;2022-10-31T08:56:47;8.63;;;6.30;;
2652;SDS011;1336;48.692;9.144;2022-10-31T08:57:43;10.43;;;6.65;;
2652;SDS011;1336;48.692;9.144;2022-10-31T08:58:34;7.40;;;6.22;;
2652;SDS011;1336;48.692;9.144;2022-10-31T08:59:26;6.90;;;5.30;;
2652;SDS011;1336;48.692;9.144;2022-10-31T09:00:17;14.10;;;6.37;;
2652;SDS011;1336;48.692;9.144;2022-10-31T09:01:08;8.90;;;5.65;;
2652;SDS011;1336;48.692;9.144;2022-10-31T09:01:59;9.50;;;6.67;;
2652;SDS011;1336;48.692;9.144;2022-10-31T09:02:55;7.32;;;5.35;;
2652;SDS011;1336;48.692;9.144;2022-10-31T09:03:46;7.22;;;5.85;;
2652;SDS011;1336;48.692;9.144;2022-10-31T09:04:38;7.95;;;6.25;;
2652;SDS011;1336;48.692;9.144;2022-10-31T09:05:29;8.80;;;5.20;;
2652;SDS011;1336;48.692;9.144;2022-10-31T09:06:21;8.02;;;5.63;;
2652;SDS011;1336;48.692;9.144;2022-10-31T09:07:13;6.93;;;5.23;;
2652;SDS011;1336;48.692;9.144;2022-10-31T09:08:05;7.00;;;5.50;;
2652;SDS011;1336;48.692;9.144;2022-10-31T09:08:56;5.80;;;5.20;;
2652;SDS011;1336;48.692;9.144;2022-10-31T09:09:49;8.02;;;5.90;;
2652;SDS011;1336;48.692;9.144;2022-10-31T09:10:39;8.60;;;5.93;;
2652;SDS011;1336;48.692;9.144;2022-10-31T09:11:31;5.75;;;5.13;;
2652;SDS011;1336;48.692;9.144;2022-10-31T09:12:22;8.83;;;5.63;;
2652;SDS011;1336;48.692;9.144;2022-10-31T09:13:15;9.23;;;5.13;;
2652;SDS011;1336;48.692;9.144;2022-10-31T09:14:08;10.98;;;6.43;;
2652;SDS011;1336;48.692;9.144;2022-10-31T09:14:59;9.23;;;5.30;;
2652;SDS011;1336;48.692;9.144;2022-10-31T09:15:51;7.32;;;5.80;;
2652;SDS011;1336;48.692;9.144;2022-10-31T09:16:43;6.32;;;5.13;;
2652;SDS011;1336;48.692;9.144;2022-10-31T09:17:34;6.33;;;5.70;;
2652;SDS011;1336;48.692;9.144;2022-10-31T09:18:25;6.53;;;5.93;;
2652;SDS011;1336;48.692;9.144;2022-10-31T09:19:17;7.93;;;5.57;;
2652;SDS011;1336;48.692;9.144;2022-10-31T09:20:09;7.25;;;5.50;;
2652;SDS011;1336;48.692;9.144;2022-10-31T09:21:02;6.20;;;5.60;;
2652;SDS011;1336;48.692;9.144;2022-10-31T09:21:54;7.97;;;6.03;;
2652;SDS011;1336;48.692;9.144;2022-10-31T09:22:46;11.43;;;6.20;;
2652;SDS011;1336;48.692;9.144;2022-10-31T09:23:37;7.20;;;5.35;;
2652;SDS011;1336;48.692;9.144;2022-10-31T09:24:29;7.38;;;5.40;;
2652;SDS011;1336;48.692;9.144;2022-10-31T09:25:20;7.53;;;5.20;;
2652;SDS011;1336;48.692;9.144;2022-10-31T09:26:11;7.63;;;4.97;;
2652;SDS011;1336;48.692;9.144;2022-10-31T09:27:02;9.57;;;5.63;;
2652;SDS011;1336;48.692;9.144;2022-10-31T09:27:55;6.35;;;5.10;;
2652;SDS011;1336;48.692;9.144;2022-10-31T09:28:47;6.53;;;5.30;;
2652;SDS011;1336;48.692;9.144;2022-10-31T09:29:39;8.35;;;4.90;;
2652;SDS011;1336;48.692;9.144;2022-10-31T09:30:30;8.93;;;6.27;;
2652;SDS011;1336;48.692;9.144;2022-10-31T09:31:23;6.18;;;5.32;;
2652;SDS011;1336;48.692;9.144;2022-10-31T09:32:15;6.80;;;5.47;;
2652;SDS011;1336;48.692;9.144;2022-10-31T09:33:06;13.57;;;5.93;;
2652;SDS011;1336;48.692;9.144;2022-10-31T09:34:00;6.78;;;4.45;;
2652;SDS011;1336;48.692;9.144;2022-10-31T09:34:51;5.05;;;4.63;;
2652;SDS011;1336;48.692;9.144;2022-10-31T09:35:43;6.93;;;4.65;;
2652;SDS011;1336;48.692;9.144;2022-10-31T09:36:34;10.23;;;5.03;;
2652;SDS011;1336;48.692;9.144;2022-10-31T09:37:26;10.25;;;5.78;;
2652;SDS011;1336;48.692;9.144;2022-10-31T09:38:19;9.10;;;5.97;;
2652;SDS011;1336;48.692;9.144;2022-10-31T09:39:13;6.30;;;4.80;;
2652;SDS011;1336;48.692;9.144;2022-10-31T09:40:04;8.30;;;4.93;;
2652;SDS011;1336;48.692;9.144;2022-10-31T09:41:00;9.23;;;5.55;;
2652;SDS011;1336;48.692;9.144;2022-10-31T09:42:02;10.00;;;5.70;;
2652;SDS011;1336;48.692;9.144;2022-10-31T09:43:02;8.38;;;5.35;;
2652;SDS011;1336;48.692;9.144;2022-10-31T09:44:01;9.63;;;5.65;;
2652;SDS011;1336;48.692;9.144;2022-10-31T09:45:00;7.45;;;5.10;;
2652;SDS011;1336;48.692;9.144;2022-10-31T09:45:59;6.28;;;5.25;;
2652;SDS011;1336;48.692;9.144;2022-10-31T09:46:57;9.00;;;5.43;;
2652;SDS011;1336;48.692;9.144;2022-10-31T09:47:57;5.90;;;5.30;;
2652;SDS011;1336;48.692;9.144;2022-10-31T09:49:02;7.13;;;5.40;;
2652;SDS011;1336;48.692;9.144;2022-10-31T09:50:14;7.95;;;5.45;;
2652;SDS011;1336;48.692;9.144;2022-10-31T09:51:09;9.63;;;5.50;;
2652;SDS011;1336;48.692;9.144;2022-10-31T09:52:08;9.38;;;4.85;;
2652;SDS011;1336;48.692;9.144;2022-10-31T09:53:03;5.13;;;4.63;;
2652;SDS011;1336;48.692;9.144;2022-10-31T09:54:05;6.82;;;5.25;;
2652;SDS011;1336;48.692;9.144;2022-10-31T09:55:02;8.77;;;4.90;;
2652;SDS011;1336;48.692;9.144;2022-10-31T09:55:59;8.25;;;5.05;;
2652;SDS011;1336;48.692;9.144;2022-10-31T09:56:51;8.73;;;5.55;;
2652;SDS011;1336;48.692;9.144;2022-10-31T09:57:43;7.75;;;5.22;;
2652;SDS011;1336;48.692;9.144;2022-10-31T09:58:39;7.13;;;5.50;;
2652;SDS011;1336;48.692;9.144;2022-10-31T09:59:34;11.40;;;5.20;;
2652;SDS011;1336;48.692;9.144;2022-10-31T10:00:27;7.55;;;5.72;;
2652;SDS011;1336;48.692;9.144;2022-10-31T10:01:23;13.48;;;5.78;;
2652;SDS011;1336;48.692;9.144;2022-10-31T10:02:22;7.63;;;5.80;;
2652;SDS011;1336;48.692;9.144;2022-10-31T10:03:21;9.18;;;5.72;;
2652;SDS011;1336;48.692;9.144;2022-10-31T10:04:27;13.85;;;6.15;;
2652;SDS011;1336;48.692;9.144;2022-10-31T10:05:24;8.43;;;6.30;;
2652;SDS011;1336;48.692;9.144;2022-10-31T10:06:23;8.65;;;6.25;;
2652;SDS011;1336;48.692;9.144;2022-10-31T10:07:20;10.02;;;6.85;;
2652;SDS011;1336;48.692;9.144;2022-10-31T10:08:18;22.30;;;6.55;;
2652;SDS011;1336;48.692;9.144;2022-10-31T10:09:12;11.25;;;6.55;;
2652;SDS011;1336;48.692;9.144;2022-10-31T10:11:08;11.93;;;6.78;;
2652;SDS011;1336;48.692;9.144;2022-10-31T10:12:13;8.73;;;6.10;;
2652;SDS011;1336;48.692;9.144;2022-10-31T10:14:41;10.75;;;6.45;;
2652;SDS011;1336;48.692;9.144;2022-10-31T10:15:51;8.73;;;6.90;;
2652;SDS011;1336;48.692;9.144;2022-10-31T10:16:57;13.40;;;6.93;;
2652;SDS011;1336;48.692;9.144;2022-10-31T10:18:02;11.30;;;6.18;;
2652;SDS011;1336;48.692;9.144;2022-10-31T10:19:05;10.10;;;6.82;;
2652;SDS011;1336;48.692;9.144;2022-10-31T10:20:14;13.80;;;6.40;;
2652;SDS011;1336;48.692;9.144;2022-10-31T10:21:19;7.10;;;5.50;;
2652;SDS011;1336;48.692;9.144;2022-10-31T10:22:22;7.10;;;6.38;;
2652;SDS011;1336;48.692;9.144;2022-10-31T10:23:27;13.50;;;6.70;;
2652;SDS011;1336;48.692;9.144;2022-10-31T10:24:30;7.90;;;5.78;;
2652;SDS011;1336;48.692;9.144;2022-10-31T10:25:34;6.05;;;5.32;;
2652;SDS011;1336;48.692;9.144;2022-10-31T10:26:30;11.38;;;6.22;;
2652;SDS011;1336;48.692;9.144;2022-10-31T10:28:41;16.20;;;6.90;;
2652;SDS011;1336;48.692;9.144;2022-10-31T10:29:37;12.63;;;6.70;;
2652;SDS011;1336;48.692;9.144;2022-10-31T10:30:35;10.15;;;6.30;;
2652;SDS011;1336;48.692;9.144;2022-10-31T10:31:31;10.40;;;6.50;;
2652;SDS011;1336;48.692;9.144;2022-10-31T10:32:27;9.95;;;6.88;;
2652;SDS011;1336;48.692;9.144;2022-10-31T10:33:20;8.95;;;6.25;;
2652;SDS011;1336;48.692;9.144;2022-10-31T10:34:17;8.98;;;6.57;;
2652;SDS011;1336;48.692;9.144;2022-10-31T10:35:15;10.00;;;6.70;;
2652;SDS011;1336;48.692;9.144;2022-10-31T10:36:13;8.45;;;6.70;;
2652;SDS011;1336;48.692;9.144;2022-10-31T10:37:10;12.65;;;6.57;;
2652;SDS011;1336;48.692;9.144;2022-10-31T10:38:11;10.52;;;6.93;;
2652;SDS011;1336;48.692;9.144;2022-10-31T10:39:08;9.88;;;5.50;;
2652;SDS011;1336;48.692;9.144;2022-10-31T10:40:08;8.73;;;5.90;;
2652;SDS011;1336;48.692;9.144;2022-10-31T10:41:06;11.32;;;5.75;;
2652;SDS011;1336;48.692;9.144;2022-10-31T10:42:04;10.60;;;6.35;;
2652;SDS011;1336;48.692;9.144;2022-10-31T10:43:21;12.88;;;6.32;;
2652;SDS011;1336;48.692;9.144;2022-10-31T10:44:20;20.17;;;8.05;;
2652;SDS011;1336;48.692;9.144;2022-10-31T10:45:14;9.60;;;6.80;;
2652;SDS011;1336;48.692;9.144;2022-10-31T10:46:26;10.50;;;6.47;;
2652;SDS011;1336;48.692;9.144;2022-10-31T10:47:43;7.00;;;6.30;;
2652;SDS011;1336;48.692;9.144;2022-10-31T10:48:42;8.07;;;6.60;;
2652;SDS011;1336;48.692;9.144;2022-10-31T10:49:37;12.10;;;6.80;;
2652;SDS011;1336;48.692;9.144;2022-10-31T10:50:48;10.45;;;6.75;;
2652;SDS011;1336;48.692;9.144;2022-10-31T10:51:41;9.30;;;6.50;;
2652;SDS011;1336;48.692;9.144;2022-10-31T10:52:38;8.48;;;6.55;;
2652;SDS011;1336;48.692;9.144;2022-10-31T10:53:40;11.25;;;6.30;;
2652;SDS011;1336;48.692;9.144;2022-10-31T10:54:54;7.03;;;6.05;;
2652;SDS011;1336;48.692;9.144;2022-10-31T10:55:55;9.65;;;6.70;;
2652;SDS011;1336;48.692;9.144;2022-10-31T10:56:55;9.15;;;6.22;;
2652;SDS011;1336;48.692;9.144;2022-10-31T10:57:55;8.60;;;6.30;;
2652;SDS011;1336;48.692;9.144;2022-10-31T10:58:48;9.82;;;7.30;;
2652;SDS011;1336;48.692;9.144;2022-10-31T10:59:47;8.90;;;6.05;;
2652;SDS011;1336;48.692;9.144;2022-10-31T11:00:38;12.07;;;6.50;;
2652;SDS011;1336;48.692;9.144;2022-10-31T11:01:32;8.90;;;6.55;;
2652;SDS011;1336;48.692;9.144;2022-10-31T11:02:23;12.20;;;6.83;;
2652;SDS011;1336;48.692;9.144;2022-10-31T11:03:16;8.73;;;6.40;;
2652;SDS011;1336;48.692;9.144;2022-10-31T11:04:14;9.27;;;6.57;;
2652;SDS011;1336;48.692;9.144;2022-10-31T11:05:23;12.25;;;6.85;;
2652;SDS011;1336;48.692;9.144;2022-10-31T11:06:17;10.98;;;7.25;;
2652;SDS011;1336;48.692;9.144;2022-10-31T11:07:12;9.98;;;6.60;;
2652;SDS011;1336;48.692;9.144;2022-10-31T11:08:02;9.67;;;6.00;;
2652;SDS011;1336;48.692;9.144;2022-10-31T11:08:55;10.68;;;6.32;;
2652;SDS011;1336;48.692;9.144;2022-10-31T11:09:46;7.13;;;6.37;;
2652;SDS011;1336;48.692;9.144;2022-10-31T11:10:38;8.75;;;6.80;;
2652;SDS011;1336;48.692;9.144;2022-10-31T11:11:30;7.90;;;6.73;;
2652;SDS011;1336;48.692;9.144;2022-10-31T11:12:30;10.02;;;6.90;;
2652;SDS011;1336;48.692;9.144;2022-10-31T11:13:23;11.88;;;7.20;;
2652;SDS011;1336;48.692;9.144;2022-10-31T11:14:15;7.07;;;6.38;;
2652;SDS011;1336;48.692;9.144;2022-10-31T11:15:16;9.95;;;7.30;;
2652;SDS011;1336;48.692;9.144;2022-10-31T11:16:10;12.13;;;7.20;;
2652;SDS011;1336;48.692;9.144;2022-10-31T11:17:07;12.73;;;6.28;;
2652;SDS011;1336;48.692;9.144;2022-10-31T11:18:01;10.88;;;6.90;;
2652;SDS011;1336;48.692;9.144;2022-10-31T11:18:52;11.40;;;6.20;;
2652;SDS011;1336;48.692;9.144;2022-10-31T11:19:59;8.88;;;6.53;;
2652;SDS011;1336;48.692;9.144;2022-10-31T11:20:51;10.30;;;6.70;;
2652;SDS011;1336;48.692;9.144;2022-10-31T11:21:45;8.25;;;6.45;;
2652;SDS011;1336;48.692;9.144;2022-10-31T11:22:36;11.88;;;7.28;;
2652;SDS011;1336;48.692;9.144;2022-10-31T11:23:28;9.40;;;7.30;;
2652;SDS011;1336;48.692;9.144;2022-10-31T11:24:20;12.40;;;7.10;;
2652;SDS011;1336;48.692;9.144;2022-10-31T11:25:22;11.85;;;5.90;;
2652;SDS011;1336;48.692;9.144;2022-10-31T11:26:18;9.15;;;6.40;;
2652;SDS011;1336;48.692;9.144;2022-10-31T11:27:14;9.38;;;6.78;;
2652;SDS011;1336;48.692;9.144;2022-10-31T11:28:08;9.88;;;6.53;;
2652;SDS011;1336;48.692;9.144;2022-10-31T11:29:00;9.30;;;6.32;;
2652;SDS011;1336;48.692;9.144;2022-10-31T11:29:53;8.70;;;7.50;;
2652;SDS011;1336;48.692;9.144;2022-10-31T11:30:56;8.32;;;7.05;;
2652;SDS011;1336;48.692;9.144;2022-10-31T11:31:49;8.80;;;7.15;;
2652;SDS011;1336;48.692;9.144;2022-10-31T11:32:43;9.13;;;7.20;;
2652;SDS011;1336;48.692;9.144;2022-10-31T11:33:39;9.35;;;7.82;;
2652;SDS011;1336;48.692;9.144;2022-10-31T11:34:37;11.25;;;7.75;;
2652;SDS011;1336;48.692;9.144;2022-10-31T11:35:34;9.25;;;7.03;;
2652;SDS011;1336;48.692;9.144;2022-10-31T11:36:31;12.43;;;7.22;;
2652;SDS011;1336;48.692;9.144;2022-10-31T11:37:26;15.40;;;7.00;;